sensor_id;sensor_type;location;lat;lon;timestamp;P1;durP1;ratioP1;P2;durP2;ratioP2
11709;SDS011;5911;51.036;6.972;2023-07-31T00:00:00;8.00;;;3.10;;
11709;SDS011;5911;51.036;6.972;2023-07-31T00:02:30;7.25;;;3.67;;
11709;SDS011;5911;51.036;6.972;2023-07-31T00:04:58;8.13;;;3.58;;
11709;SDS011;5911;51.036;6.972;2023-07-31T00:07:26;5.95;;;3.60;;
11709;SDS011;5911;51.036;6.972;2023-07-31T00:09:54;7.00;;;3.30;;
11709;SDS011;5911;51.036;6.972;2023-07-31T00:12:24;4.97;;;3.00;;
11709;SDS011;5911;51.036;6.972;2023-07-31T00:14:52;6.10;;;3.10;;
11709;SDS011;5911;51.036;6.972;2023-07-31T00:17:20;6.18;;;3.60;;
11709;SDS011;5911;51.036;6.972;2023-07-31T00:19:48;9.43;;;3.60;;
11709;SDS011;5911;51.036;6.972;2023-07-31T00:22:17;6.10;;;3.13;;
11709;SDS011;5911;51.036;6.972;2023-07-31T00:24:45;7.00;;;3.53;;
11709;SDS011;5911;51.036;6.972;2023-07-31T00:27:15;7.78;;;3.35;;
11709;SDS011;5911;51.036;6.972;2023-07-31T00:29:44;5.72;;;3.58;;
11709;SDS011;5911;51.036;6.972;2023-07-31T00:32:12;5.70;;;3.25;;
11709;SDS011;5911;51.036;6.972;2023-07-31T00:34:40;8.20;;;3.90;;
11709;SDS011;5911;51.036;6.972;2023-07-31T00:37:08;5.68;;;3.42;;
11709;SDS011;5911;51.036;6.972;2023-07-31T00:39:36;7.78;;;3.42;;
11709;SDS011;5911;51.036;6.972;2023-07-31T00:42:04;7.93;;;4.20;;
11709;SDS011;5911;51.036;6.972;2023-07-31T00:44:32;5.43;;;3.28;;
11709;SDS011;5911;51.036;6.972;2023-07-31T00:47:02;6.38;;;3.83;;
11709;SDS011;5911;51.036;6.972;2023-07-31T00:49:30;5.18;;;3.15;;
11709;SDS011;5911;51.036;6.972;2023-07-31T00:51:58;9.15;;;3.58;;
11709;SDS011;5911;51.036;6.972;2023-07-31T00:54:27;7.28;;;3.22;;
11709;SDS011;5911;51.036;6.972;2023-07-31T00:56:55;8.55;;;3.40;;
11709;SDS011;5911;51.036;6.972;2023-07-31T00:59:24;6.38;;;3.42;;
11709;SDS011;5911;51.036;6.972;2023-07-31T01:01:51;6.43;;;3.38;;
11709;SDS011;5911;51.036;6.972;2023-07-31T01:04:22;6.15;;;3.42;;
11709;SDS011;5911;51.036;6.972;2023-07-31T01:06:52;8.45;;;3.45;;
11709;SDS011;5911;51.036;6.972;2023-07-31T01:09:30;6.10;;;2.97;;
11709;SDS011;5911;51.036;6.972;2023-07-31T01:12:04;16.13;;;4.38;;
11709;SDS011;5911;51.036;6.972;2023-07-31T01:14:34;8.85;;;3.60;;
11709;SDS011;5911;51.036;6.972;2023-07-31T01:17:02;7.50;;;3.45;;
11709;SDS011;5911;51.036;6.972;2023-07-31T01:19:32;7.40;;;3.17;;
11709;SDS011;5911;51.036;6.972;2023-07-31T01:22:16;7.00;;;3.13;;
11709;SDS011;5911;51.036;6.972;2023-07-31T01:25:00;7.20;;;3.30;;
11709;SDS011;5911;51.036;6.972;2023-07-31T01:27:42;6.75;;;3.38;;
11709;SDS011;5911;51.036;6.972;2023-07-31T01:30:15;5.90;;;2.75;;
11709;SDS011;5911;51.036;6.972;2023-07-31T01:32:44;6.63;;;2.97;;
11709;SDS011;5911;51.036;6.972;2023-07-31T01:35:15;6.82;;;3.10;;
11709;SDS011;5911;51.036;6.972;2023-07-31T01:37:43;5.63;;;2.75;;
11709;SDS011;5911;51.036;6.972;2023-07-31T01:40:12;6.20;;;3.53;;
11709;SDS011;5911;51.036;6.972;2023-07-31T01:42:42;6.38;;;3.10;;
11709;SDS011;5911;51.036;6.972;2023-07-31T01:45:11;6.60;;;3.60;;
11709;SDS011;5911;51.036;6.972;2023-07-31T01:47:40;6.63;;;3.03;;
11709;SDS011;5911;51.036;6.972;2023-07-31T01:50:08;6.78;;;3.58;;
11709;SDS011;5911;51.036;6.972;2023-07-31T01:52:37;6.35;;;3.63;;
11709;SDS011;5911;51.036;6.972;2023-07-31T01:55:05;7.03;;;3.28;;
11709;SDS011;5911;51.036;6.972;2023-07-31T01:57:33;9.05;;;3.53;;
11709;SDS011;5911;51.036;6.972;2023-07-31T02:00:02;13.77;;;3.67;;
11709;SDS011;5911;51.036;6.972;2023-07-31T02:02:40;6.97;;;3.10;;
11709;SDS011;5911;51.036;6.972;2023-07-31T02:05:08;7.55;;;3.38;;
11709;SDS011;5911;51.036;6.972;2023-07-31T02:07:36;8.38;;;3.05;;
11709;SDS011;5911;51.036;6.972;2023-07-31T02:10:05;6.63;;;3.45;;
11709;SDS011;5911;51.036;6.972;2023-07-31T02:12:34;6.90;;;3.63;;
11709;SDS011;5911;51.036;6.972;2023-07-31T02:15:04;5.45;;;2.95;;
11709;SDS011;5911;51.036;6.972;2023-07-31T02:17:33;7.40;;;3.30;;
11709;SDS011;5911;51.036;6.972;2023-07-31T02:20:01;6.70;;;2.65;;
11709;SDS011;5911;51.036;6.972;2023-07-31T02:22:29;9.80;;;3.28;;
11709;SDS011;5911;51.036;6.972;2023-07-31T02:24:57;4.32;;;3.08;;
11709;SDS011;5911;51.036;6.972;2023-07-31T02:27:25;9.20;;;3.65;;
11709;SDS011;5911;51.036;6.972;2023-07-31T02:29:54;4.32;;;2.92;;
11709;SDS011;5911;51.036;6.972;2023-07-31T02:32:26;6.70;;;3.10;;
11709;SDS011;5911;51.036;6.972;2023-07-31T02:34:54;5.93;;;3.22;;
11709;SDS011;5911;51.036;6.972;2023-07-31T02:37:24;7.97;;;3.03;;
11709;SDS011;5911;51.036;6.972;2023-07-31T02:39:52;7.10;;;2.72;;
11709;SDS011;5911;51.036;6.972;2023-07-31T02:42:20;8.07;;;3.72;;
11709;SDS011;5911;51.036;6.972;2023-07-31T02:44:48;8.50;;;3.38;;
11709;SDS011;5911;51.036;6.972;2023-07-31T02:47:21;7.97;;;3.13;;
11709;SDS011;5911;51.036;6.972;2023-07-31T02:49:51;5.05;;;3.75;;
11709;SDS011;5911;51.036;6.972;2023-07-31T02:52:19;6.53;;;3.30;;
11709;SDS011;5911;51.036;6.972;2023-07-31T02:54:47;4.60;;;3.10;;
11709;SDS011;5911;51.036;6.972;2023-07-31T02:57:14;5.70;;;3.17;;
11709;SDS011;5911;51.036;6.972;2023-07-31T02:59:43;4.97;;;3.25;;
11709;SDS011;5911;51.036;6.972;2023-07-31T03:02:11;6.38;;;3.00;;
11709;SDS011;5911;51.036;6.972;2023-07-31T03:04:39;6.65;;;2.92;;
11709;SDS011;5911;51.036;6.972;2023-07-31T03:07:09;7.53;;;3.30;;
11709;SDS011;5911;51.036;6.972;2023-07-31T03:09:39;6.82;;;3.45;;
11709;SDS011;5911;51.036;6.972;2023-07-31T03:12:08;6.28;;;3.28;;
11709;SDS011;5911;51.036;6.972;2023-07-31T03:14:36;5.32;;;2.88;;
11709;SDS011;5911;51.036;6.972;2023-07-31T03:17:04;5.57;;;3.30;;
11709;SDS011;5911;51.036;6.972;2023-07-31T03:19:33;7.78;;;3.50;;
11709;SDS011;5911;51.036;6.972;2023-07-31T03:22:01;5.93;;;3.30;;
11709;SDS011;5911;51.036;6.972;2023-07-31T03:24:30;7.85;;;3.63;;
11709;SDS011;5911;51.036;6.972;2023-07-31T03:26:58;6.43;;;3.63;;
11709;SDS011;5911;51.036;6.972;2023-07-31T03:29:27;7.95;;;3.45;;
11709;SDS011;5911;51.036;6.972;2023-07-31T03:31:55;6.90;;;3.40;;
11709;SDS011;5911;51.036;6.972;2023-07-31T03:34:23;9.18;;;3.67;;
11709;SDS011;5911;51.036;6.972;2023-07-31T03:36:51;7.53;;;4.10;;
11709;SDS011;5911;51.036;6.972;2023-07-31T03:39:18;4.72;;;3.33;;
11709;SDS011;5911;51.036;6.972;2023-07-31T03:41:48;5.82;;;3.47;;
11709;SDS011;5911;51.036;6.972;2023-07-31T03:44:16;5.95;;;3.75;;
11709;SDS011;5911;51.036;6.972;2023-07-31T03:46:45;5.45;;;3.13;;
11709;SDS011;5911;51.036;6.972;2023-07-31T03:49:13;12.20;;;3.75;;
11709;SDS011;5911;51.036;6.972;2023-07-31T03:51:41;10.13;;;3.63;;
11709;SDS011;5911;51.036;6.972;2023-07-31T03:54:09;8.52;;;3.63;;
11709;SDS011;5911;51.036;6.972;2023-07-31T03:56:37;7.53;;;3.75;;
11709;SDS011;5911;51.036;6.972;2023-07-31T03:59:07;6.30;;;3.47;;
11709;SDS011;5911;51.036;6.972;2023-07-31T04:01:35;7.80;;;4.07;;
11709;SDS011;5911;51.036;6.972;2023-07-31T04:04:03;7.80;;;3.83;;
11709;SDS011;5911;51.036;6.972;2023-07-31T04:06:31;7.32;;;3.38;;
11709;SDS011;5911;51.036;6.972;2023-07-31T04:08:59;6.43;;;3.35;;
11709;SDS011;5911;51.036;6.972;2023-07-31T04:11:27;6.88;;;3.40;;
11709;SDS011;5911;51.036;6.972;2023-07-31T04:13:55;6.32;;;3.42;;
11709;SDS011;5911;51.036;6.972;2023-07-31T04:16:24;7.45;;;3.60;;
11709;SDS011;5911;51.036;6.972;2023-07-31T04:18:52;6.18;;;4.00;;
11709;SDS011;5911;51.036;6.972;2023-07-31T04:21:20;7.45;;;3.90;;
11709;SDS011;5911;51.036;6.972;2023-07-31T04:23:48;6.95;;;3.47;;
11709;SDS011;5911;51.036;6.972;2023-07-31T04:26:15;8.45;;;3.85;;
11709;SDS011;5911;51.036;6.972;2023-07-31T04:28:43;9.20;;;4.25;;
11709;SDS011;5911;51.036;6.972;2023-07-31T04:31:11;8.13;;;3.95;;
11709;SDS011;5911;51.036;6.972;2023-07-31T04:33:41;7.53;;;4.03;;
11709;SDS011;5911;51.036;6.972;2023-07-31T04:36:08;8.48;;;4.13;;
11709;SDS011;5911;51.036;6.972;2023-07-31T04:38:37;9.07;;;4.20;;
11709;SDS011;5911;51.036;6.972;2023-07-31T04:41:05;6.95;;;4.00;;
11709;SDS011;5911;51.036;6.972;2023-07-31T04:43:32;6.05;;;3.90;;
11709;SDS011;5911;51.036;6.972;2023-07-31T04:46:00;9.00;;;4.40;;
11709;SDS011;5911;51.036;6.972;2023-07-31T04:48:28;6.05;;;4.03;;
11709;SDS011;5911;51.036;6.972;2023-07-31T04:50:57;6.95;;;4.25;;
11709;SDS011;5911;51.036;6.972;2023-07-31T04:53:25;6.72;;;3.50;;
11709;SDS011;5911;51.036;6.972;2023-07-31T04:55:54;7.20;;;4.35;;
11709;SDS011;5911;51.036;6.972;2023-07-31T04:58:22;7.43;;;3.85;;
11709;SDS011;5911;51.036;6.972;2023-07-31T05:00:49;5.47;;;3.70;;
11709;SDS011;5911;51.036;6.972;2023-07-31T05:03:17;5.88;;;3.58;;
11709;SDS011;5911;51.036;6.972;2023-07-31T05:05:45;6.50;;;3.75;;
11709;SDS011;5911;51.036;6.972;2023-07-31T05:08:15;6.63;;;4.22;;
11709;SDS011;5911;51.036;6.972;2023-07-31T05:10:43;6.35;;;3.95;;
11709;SDS011;5911;51.036;6.972;2023-07-31T05:13:11;7.40;;;4.43;;
11709;SDS011;5911;51.036;6.972;2023-07-31T05:15:40;5.80;;;3.90;;
11709;SDS011;5911;51.036;6.972;2023-07-31T05:18:08;6.07;;;3.95;;
11709;SDS011;5911;51.036;6.972;2023-07-31T05:20:36;7.55;;;3.75;;
11709;SDS011;5911;51.036;6.972;2023-07-31T05:23:04;7.70;;;3.95;;
11709;SDS011;5911;51.036;6.972;2023-07-31T05:25:36;6.03;;;3.67;;
11709;SDS011;5911;51.036;6.972;2023-07-31T05:28:04;6.15;;;3.90;;
11709;SDS011;5911;51.036;6.972;2023-07-31T05:30:32;8.02;;;4.30;;
11709;SDS011;5911;51.036;6.972;2023-07-31T05:33:00;10.02;;;4.43;;
11709;SDS011;5911;51.036;6.972;2023-07-31T05:35:28;6.95;;;4.07;;
11709;SDS011;5911;51.036;6.972;2023-07-31T05:37:56;5.10;;;3.70;;
11709;SDS011;5911;51.036;6.972;2023-07-31T05:40:24;5.80;;;3.33;;
11709;SDS011;5911;51.036;6.972;2023-07-31T05:42:54;4.65;;;3.50;;
11709;SDS011;5911;51.036;6.972;2023-07-31T05:45:22;7.30;;;3.90;;
11709;SDS011;5911;51.036;6.972;2023-07-31T05:47:52;4.03;;;3.40;;
11709;SDS011;5911;51.036;6.972;2023-07-31T05:50:19;5.70;;;3.80;;
11709;SDS011;5911;51.036;6.972;2023-07-31T05:52:47;7.13;;;3.80;;
11709;SDS011;5911;51.036;6.972;2023-07-31T05:55:15;4.45;;;3.30;;
11709;SDS011;5911;51.036;6.972;2023-07-31T05:57:43;10.30;;;4.43;;
11709;SDS011;5911;51.036;6.972;2023-07-31T06:00:13;6.72;;;4.22;;
11709;SDS011;5911;51.036;6.972;2023-07-31T06:02:42;6.22;;;3.65;;
11709;SDS011;5911;51.036;6.972;2023-07-31T06:05:10;5.25;;;3.40;;
11709;SDS011;5911;51.036;6.972;2023-07-31T06:07:38;5.32;;;3.63;;
11709;SDS011;5911;51.036;6.972;2023-07-31T06:10:06;7.03;;;4.03;;
11709;SDS011;5911;51.036;6.972;2023-07-31T06:12:35;8.23;;;4.18;;
11709;SDS011;5911;51.036;6.972;2023-07-31T06:15:04;6.25;;;3.90;;
11709;SDS011;5911;51.036;6.972;2023-07-31T06:17:33;7.00;;;4.15;;
11709;SDS011;5911;51.036;6.972;2023-07-31T06:20:01;5.72;;;3.90;;
11709;SDS011;5911;51.036;6.972;2023-07-31T06:22:31;7.43;;;4.53;;
11709;SDS011;5911;51.036;6.972;2023-07-31T06:24:59;7.05;;;4.40;;
11709;SDS011;5911;51.036;6.972;2023-07-31T06:27:28;4.80;;;4.22;;
11709;SDS011;5911;51.036;6.972;2023-07-31T06:29:56;5.68;;;3.80;;
11709;SDS011;5911;51.036;6.972;2023-07-31T06:32:23;6.15;;;3.35;;
11709;SDS011;5911;51.036;6.972;2023-07-31T06:34:53;7.05;;;4.30;;
11709;SDS011;5911;51.036;6.972;2023-07-31T06:37:24;6.57;;;4.22;;
11709;SDS011;5911;51.036;6.972;2023-07-31T06:39:51;6.15;;;4.38;;
11709;SDS011;5911;51.036;6.972;2023-07-31T06:42:19;5.72;;;4.07;;
11709;SDS011;5911;51.036;6.972;2023-07-31T06:44:47;5.28;;;4.10;;
11709;SDS011;5911;51.036;6.972;2023-07-31T06:47:15;7.57;;;3.97;;
11709;SDS011;5911;51.036;6.972;2023-07-31T06:49:43;6.60;;;3.70;;
11709;SDS011;5911;51.036;6.972;2023-07-31T06:52:12;9.95;;;4.28;;
11709;SDS011;5911;51.036;6.972;2023-07-31T06:54:40;6.32;;;3.67;;
11709;SDS011;5911;51.036;6.972;2023-07-31T06:57:08;5.10;;;3.60;;
11709;SDS011;5911;51.036;6.972;2023-07-31T06:59:35;6.50;;;3.80;;
11709;SDS011;5911;51.036;6.972;2023-07-31T07:02:04;5.20;;;3.83;;
11709;SDS011;5911;51.036;6.972;2023-07-31T07:04:32;5.85;;;3.35;;
11709;SDS011;5911;51.036;6.972;2023-07-31T07:07:00;5.43;;;3.35;;
11709;SDS011;5911;51.036;6.972;2023-07-31T07:09:35;6.63;;;3.55;;
11709;SDS011;5911;51.036;6.972;2023-07-31T07:12:03;6.70;;;3.67;;
11709;SDS011;5911;51.036;6.972;2023-07-31T07:14:31;8.15;;;3.95;;
11709;SDS011;5911;51.036;6.972;2023-07-31T07:17:01;8.18;;;3.90;;
11709;SDS011;5911;51.036;6.972;2023-07-31T07:19:29;7.18;;;3.83;;
11709;SDS011;5911;51.036;6.972;2023-07-31T07:21:57;6.97;;;4.00;;
11709;SDS011;5911;51.036;6.972;2023-07-31T07:24:30;6.13;;;3.83;;
11709;SDS011;5911;51.036;6.972;2023-07-31T07:26:59;5.80;;;3.75;;
11709;SDS011;5911;51.036;6.972;2023-07-31T07:29:27;7.68;;;3.63;;
11709;SDS011;5911;51.036;6.972;2023-07-31T07:32:03;7.03;;;3.97;;
11709;SDS011;5911;51.036;6.972;2023-07-31T07:34:33;6.20;;;3.78;;
11709;SDS011;5911;51.036;6.972;2023-07-31T07:37:01;6.72;;;4.10;;
11709;SDS011;5911;51.036;6.972;2023-07-31T07:39:29;5.78;;;3.75;;
11709;SDS011;5911;51.036;6.972;2023-07-31T07:41:57;8.18;;;3.63;;
11709;SDS011;5911;51.036;6.972;2023-07-31T07:44:26;6.88;;;4.03;;
11709;SDS011;5911;51.036;6.972;2023-07-31T07:46:54;5.57;;;4.22;;
11709;SDS011;5911;51.036;6.972;2023-07-31T07:49:25;6.32;;;3.50;;
11709;SDS011;5911;51.036;6.972;2023-07-31T07:51:56;9.07;;;4.38;;
11709;SDS011;5911;51.036;6.972;2023-07-31T07:54:24;4.93;;;3.67;;
11709;SDS011;5911;51.036;6.972;2023-07-31T07:56:52;8.35;;;4.22;;
11709;SDS011;5911;51.036;6.972;2023-07-31T07:59:23;5.55;;;3.75;;
11709;SDS011;5911;51.036;6.972;2023-07-31T08:01:52;5.47;;;4.07;;
11709;SDS011;5911;51.036;6.972;2023-07-31T08:04:26;5.47;;;3.78;;
11709;SDS011;5911;51.036;6.972;2023-07-31T08:06:58;6.82;;;4.47;;
11709;SDS011;5911;51.036;6.972;2023-07-31T08:09:25;8.30;;;4.15;;
11709;SDS011;5911;51.036;6.972;2023-07-31T08:11:53;8.23;;;4.15;;
11709;SDS011;5911;51.036;6.972;2023-07-31T08:14:24;6.63;;;4.00;;
11709;SDS011;5911;51.036;6.972;2023-07-31T08:16:53;7.25;;;4.25;;
11709;SDS011;5911;51.036;6.972;2023-07-31T08:19:21;5.60;;;3.97;;
11709;SDS011;5911;51.036;6.972;2023-07-31T08:21:51;7.25;;;3.83;;
11709;SDS011;5911;51.036;6.972;2023-07-31T08:24:25;4.90;;;3.45;;
11709;SDS011;5911;51.036;6.972;2023-07-31T08:26:53;5.60;;;3.38;;
11709;SDS011;5911;51.036;6.972;2023-07-31T08:29:21;7.70;;;4.10;;
11709;SDS011;5911;51.036;6.972;2023-07-31T08:31:51;7.55;;;3.58;;
11709;SDS011;5911;51.036;6.972;2023-07-31T08:34:20;5.50;;;3.47;;
11709;SDS011;5911;51.036;6.972;2023-07-31T08:36:48;3.92;;;3.25;;
11709;SDS011;5911;51.036;6.972;2023-07-31T08:39:16;5.10;;;3.13;;
11709;SDS011;5911;51.036;6.972;2023-07-31T08:41:44;5.65;;;2.70;;
11709;SDS011;5911;51.036;6.972;2023-07-31T08:44:12;6.47;;;3.17;;
11709;SDS011;5911;51.036;6.972;2023-07-31T08:46:42;6.47;;;3.40;;
11709;SDS011;5911;51.036;6.972;2023-07-31T08:49:11;4.72;;;2.95;;
11709;SDS011;5911;51.036;6.972;2023-07-31T08:51:40;6.15;;;4.05;;
11709;SDS011;5911;51.036;6.972;2023-07-31T08:54:09;4.72;;;2.92;;
11709;SDS011;5911;51.036;6.972;2023-07-31T08:56:37;5.68;;;3.00;;
11709;SDS011;5911;51.036;6.972;2023-07-31T08:59:07;3.63;;;3.00;;
11709;SDS011;5911;51.036;6.972;2023-07-31T09:01:43;4.40;;;2.83;;
11709;SDS011;5911;51.036;6.972;2023-07-31T09:04:20;5.20;;;3.28;;
11709;SDS011;5911;51.036;6.972;2023-07-31T09:06:51;4.97;;;3.42;;
11709;SDS011;5911;51.036;6.972;2023-07-31T09:09:24;6.43;;;3.25;;
11709;SDS011;5911;51.036;6.972;2023-07-31T09:11:52;3.67;;;3.05;;
11709;SDS011;5911;51.036;6.972;2023-07-31T09:14:20;4.68;;;2.90;;
11709;SDS011;5911;51.036;6.972;2023-07-31T09:16:52;6.47;;;3.03;;
11709;SDS011;5911;51.036;6.972;2023-07-31T09:19:27;5.07;;;2.92;;
11709;SDS011;5911;51.036;6.972;2023-07-31T09:21:58;6.60;;;2.92;;
11709;SDS011;5911;51.036;6.972;2023-07-31T09:24:26;4.10;;;2.70;;
11709;SDS011;5911;51.036;6.972;2023-07-31T09:26:56;5.35;;;2.70;;
11709;SDS011;5911;51.036;6.972;2023-07-31T09:29:26;4.28;;;2.67;;
11709;SDS011;5911;51.036;6.972;2023-07-31T09:31:54;4.75;;;2.83;;
11709;SDS011;5911;51.036;6.972;2023-07-31T09:34:28;4.70;;;2.63;;
11709;SDS011;5911;51.036;6.972;2023-07-31T09:37:01;6.22;;;2.63;;
11709;SDS011;5911;51.036;6.972;2023-07-31T09:39:29;4.70;;;3.00;;
11709;SDS011;5911;51.036;6.972;2023-07-31T09:41:58;5.82;;;2.95;;
11709;SDS011;5911;51.036;6.972;2023-07-31T09:44:38;4.18;;;2.60;;
11709;SDS011;5911;51.036;6.972;2023-07-31T09:47:18;4.80;;;3.00;;
11709;SDS011;5911;51.036;6.972;2023-07-31T09:49:50;4.18;;;2.40;;
11709;SDS011;5911;51.036;6.972;2023-07-31T09:52:20;5.18;;;2.88;;
11709;SDS011;5911;51.036;6.972;2023-07-31T09:54:48;4.57;;;3.08;;
11709;SDS011;5911;51.036;6.972;2023-07-31T09:57:16;3.47;;;2.30;;
11709;SDS011;5911;51.036;6.972;2023-07-31T09:59:45;3.55;;;2.63;;
11709;SDS011;5911;51.036;6.972;2023-07-31T10:02:15;5.32;;;2.70;;
11709;SDS011;5911;51.036;6.972;2023-07-31T10:04:49;7.05;;;3.10;;
11709;SDS011;5911;51.036;6.972;2023-07-31T10:07:18;4.70;;;2.67;;
11709;SDS011;5911;51.036;6.972;2023-07-31T10:09:47;3.95;;;2.88;;
11709;SDS011;5911;51.036;6.972;2023-07-31T10:12:17;4.40;;;3.65;;
11709;SDS011;5911;51.036;6.972;2023-07-31T10:14:48;6.03;;;3.13;;
11709;SDS011;5911;51.036;6.972;2023-07-31T10:17:16;5.65;;;2.97;;
11709;SDS011;5911;51.036;6.972;2023-07-31T10:19:45;4.25;;;2.85;;
11709;SDS011;5911;51.036;6.972;2023-07-31T10:22:14;5.13;;;2.55;;
11709;SDS011;5911;51.036;6.972;2023-07-31T10:24:44;4.47;;;2.70;;
11709;SDS011;5911;51.036;6.972;2023-07-31T10:27:13;3.13;;;2.28;;
11709;SDS011;5911;51.036;6.972;2023-07-31T10:29:41;4.47;;;2.90;;
11709;SDS011;5911;51.036;6.972;2023-07-31T10:32:11;4.32;;;2.50;;
11709;SDS011;5911;51.036;6.972;2023-07-31T10:34:40;4.50;;;3.17;;
11709;SDS011;5911;51.036;6.972;2023-07-31T10:37:21;5.05;;;2.85;;
11709;SDS011;5911;51.036;6.972;2023-07-31T10:39:59;5.28;;;2.92;;
11709;SDS011;5911;51.036;6.972;2023-07-31T10:42:29;3.58;;;2.33;;
11709;SDS011;5911;51.036;6.972;2023-07-31T10:45:00;4.15;;;2.72;;
11709;SDS011;5911;51.036;6.972;2023-07-31T10:47:29;4.10;;;2.88;;
11709;SDS011;5911;51.036;6.972;2023-07-31T10:50:16;4.55;;;2.50;;
11709;SDS011;5911;51.036;6.972;2023-07-31T10:52:47;4.70;;;2.88;;
11709;SDS011;5911;51.036;6.972;2023-07-31T10:55:24;3.70;;;2.67;;
11709;SDS011;5911;51.036;6.972;2023-07-31T10:57:54;5.35;;;2.60;;
11709;SDS011;5911;51.036;6.972;2023-07-31T11:00:24;6.45;;;2.47;;
11709;SDS011;5911;51.036;6.972;2023-07-31T11:02:57;3.70;;;2.85;;
11709;SDS011;5911;51.036;6.972;2023-07-31T11:08:30;3.45;;;2.20;;
11709;SDS011;5911;51.036;6.972;2023-07-31T11:11:06;3.03;;;2.10;;
11709;SDS011;5911;51.036;6.972;2023-07-31T11:13:39;4.72;;;2.03;;
11709;SDS011;5911;51.036;6.972;2023-07-31T11:16:09;3.10;;;2.30;;
11709;SDS011;5911;51.036;6.972;2023-07-31T11:18:38;2.00;;;1.80;;
11709;SDS011;5911;51.036;6.972;2023-07-31T11:21:08;5.40;;;1.90;;
11709;SDS011;5911;51.036;6.972;2023-07-31T11:23:36;3.40;;;2.00;;
11709;SDS011;5911;51.036;6.972;2023-07-31T11:26:06;3.42;;;2.00;;
11709;SDS011;5911;51.036;6.972;2023-07-31T11:28:34;2.65;;;1.90;;
11709;SDS011;5911;51.036;6.972;2023-07-31T11:31:02;2.25;;;1.80;;
11709;SDS011;5911;51.036;6.972;2023-07-31T11:33:30;2.75;;;1.70;;
11709;SDS011;5911;51.036;6.972;2023-07-31T11:35:58;2.50;;;1.67;;
11709;SDS011;5911;51.036;6.972;2023-07-31T11:38:26;1.85;;;1.20;;
11709;SDS011;5911;51.036;6.972;2023-07-31T11:40:56;1.35;;;1.25;;
11709;SDS011;5911;51.036;6.972;2023-07-31T11:43:26;2.10;;;1.30;;
11709;SDS011;5911;51.036;6.972;2023-07-31T11:45:55;1.30;;;1.10;;
11709;SDS011;5911;51.036;6.972;2023-07-31T11:48:25;1.98;;;1.08;;
11709;SDS011;5911;51.036;6.972;2023-07-31T11:50:55;1.15;;;1.05;;
11709;SDS011;5911;51.036;6.972;2023-07-31T11:53:27;1.00;;;0.98;;
11709;SDS011;5911;51.036;6.972;2023-07-31T11:55:59;1.15;;;1.02;;
11709;SDS011;5911;51.036;6.972;2023-07-31T11:58:30;0.73;;;0.73;;
11709;SDS011;5911;51.036;6.972;2023-07-31T12:00:58;1.15;;;1.02;;
11709;SDS011;5911;51.036;6.972;2023-07-31T12:03:27;0.80;;;0.80;;
11709;SDS011;5911;51.036;6.972;2023-07-31T12:05:55;1.23;;;0.90;;
11709;SDS011;5911;51.036;6.972;2023-07-31T12:08:23;2.03;;;0.90;;
11709;SDS011;5911;51.036;6.972;2023-07-31T12:10:51;0.70;;;0.70;;
11709;SDS011;5911;51.036;6.972;2023-07-31T12:13:20;1.98;;;0.88;;
11709;SDS011;5911;51.036;6.972;2023-07-31T12:15:53;0.95;;;0.68;;
11709;SDS011;5911;51.036;6.972;2023-07-31T12:18:23;1.50;;;1.05;;
11709;SDS011;5911;51.036;6.972;2023-07-31T12:20:53;1.40;;;0.88;;
11709;SDS011;5911;51.036;6.972;2023-07-31T12:23:23;1.08;;;0.90;;
11709;SDS011;5911;51.036;6.972;2023-07-31T12:26:00;1.75;;;1.38;;
11709;SDS011;5911;51.036;6.972;2023-07-31T12:28:29;1.63;;;1.42;;
11709;SDS011;5911;51.036;6.972;2023-07-31T12:31:03;1.45;;;1.30;;
11709;SDS011;5911;51.036;6.972;2023-07-31T12:33:32;2.13;;;1.50;;
11709;SDS011;5911;51.036;6.972;2023-07-31T12:36:01;2.42;;;1.63;;
11709;SDS011;5911;51.036;6.972;2023-07-31T12:38:31;4.05;;;2.10;;
11709;SDS011;5911;51.036;6.972;2023-07-31T12:40:59;3.17;;;2.25;;
11709;SDS011;5911;51.036;6.972;2023-07-31T12:43:27;2.15;;;1.85;;
11709;SDS011;5911;51.036;6.972;2023-07-31T12:45:55;3.13;;;1.90;;
11709;SDS011;5911;51.036;6.972;2023-07-31T12:48:24;2.58;;;2.10;;
11709;SDS011;5911;51.036;6.972;2023-07-31T12:50:52;4.00;;;2.15;;
11709;SDS011;5911;51.036;6.972;2023-07-31T12:53:20;3.65;;;2.47;;
11709;SDS011;5911;51.036;6.972;2023-07-31T12:55:48;4.32;;;2.30;;
11709;SDS011;5911;51.036;6.972;2023-07-31T12:58:16;2.70;;;2.28;;
11709;SDS011;5911;51.036;6.972;2023-07-31T13:00:44;3.95;;;2.30;;
11709;SDS011;5911;51.036;6.972;2023-07-31T13:03:12;2.30;;;1.90;;
11709;SDS011;5911;51.036;6.972;2023-07-31T13:05:41;3.38;;;2.30;;
11709;SDS011;5911;51.036;6.972;2023-07-31T13:08:09;2.85;;;2.08;;
11709;SDS011;5911;51.036;6.972;2023-07-31T13:10:38;2.45;;;1.88;;
11709;SDS011;5911;51.036;6.972;2023-07-31T13:13:06;2.35;;;2.05;;
11709;SDS011;5911;51.036;6.972;2023-07-31T13:15:34;2.88;;;2.20;;
11709;SDS011;5911;51.036;6.972;2023-07-31T13:18:02;2.83;;;2.50;;
11709;SDS011;5911;51.036;6.972;2023-07-31T13:20:30;2.47;;;2.13;;
11709;SDS011;5911;51.036;6.972;2023-07-31T13:22:59;2.55;;;2.13;;
11709;SDS011;5911;51.036;6.972;2023-07-31T13:25:27;2.70;;;2.28;;
11709;SDS011;5911;51.036;6.972;2023-07-31T13:27:55;3.00;;;2.00;;
11709;SDS011;5911;51.036;6.972;2023-07-31T13:30:26;3.97;;;2.92;;
11709;SDS011;5911;51.036;6.972;2023-07-31T13:32:54;2.80;;;2.33;;
11709;SDS011;5911;51.036;6.972;2023-07-31T13:35:22;4.00;;;2.33;;
11709;SDS011;5911;51.036;6.972;2023-07-31T13:37:49;2.92;;;2.08;;
11709;SDS011;5911;51.036;6.972;2023-07-31T13:40:19;3.65;;;2.75;;
11709;SDS011;5911;51.036;6.972;2023-07-31T13:42:46;2.55;;;2.03;;
11709;SDS011;5911;51.036;6.972;2023-07-31T13:45:14;3.45;;;2.35;;
11709;SDS011;5911;51.036;6.972;2023-07-31T13:47:42;2.65;;;2.33;;
11709;SDS011;5911;51.036;6.972;2023-07-31T13:50:10;2.92;;;2.50;;
11709;SDS011;5911;51.036;6.972;2023-07-31T13:52:38;2.10;;;1.90;;
11709;SDS011;5911;51.036;6.972;2023-07-31T13:55:06;3.08;;;2.25;;
11709;SDS011;5911;51.036;6.972;2023-07-31T13:57:36;4.00;;;2.63;;
11709;SDS011;5911;51.036;6.972;2023-07-31T14:00:04;2.60;;;2.20;;
11709;SDS011;5911;51.036;6.972;2023-07-31T14:02:32;2.28;;;2.08;;
11709;SDS011;5911;51.036;6.972;2023-07-31T14:05:01;2.67;;;2.40;;
11709;SDS011;5911;51.036;6.972;2023-07-31T14:07:29;2.03;;;1.85;;
11709;SDS011;5911;51.036;6.972;2023-07-31T14:09:59;4.55;;;2.13;;
11709;SDS011;5911;51.036;6.972;2023-07-31T14:12:26;3.20;;;2.25;;
11709;SDS011;5911;51.036;6.972;2023-07-31T14:15:09;2.30;;;2.10;;
11709;SDS011;5911;51.036;6.972;2023-07-31T14:17:37;2.08;;;1.85;;
11709;SDS011;5911;51.036;6.972;2023-07-31T14:20:06;2.58;;;2.22;;
11709;SDS011;5911;51.036;6.972;2023-07-31T14:22:35;4.22;;;2.30;;
11709;SDS011;5911;51.036;6.972;2023-07-31T14:25:04;3.13;;;2.17;;
11709;SDS011;5911;51.036;6.972;2023-07-31T14:27:32;3.83;;;2.20;;
11709;SDS011;5911;51.036;6.972;2023-07-31T14:30:00;2.60;;;2.40;;
11709;SDS011;5911;51.036;6.972;2023-07-31T14:32:29;2.40;;;2.20;;
11709;SDS011;5911;51.036;6.972;2023-07-31T14:34:58;5.65;;;2.50;;
11709;SDS011;5911;51.036;6.972;2023-07-31T14:37:26;3.67;;;2.53;;
11709;SDS011;5911;51.036;6.972;2023-07-31T14:39:54;2.70;;;2.40;;
11709;SDS011;5911;51.036;6.972;2023-07-31T14:42:22;3.00;;;2.30;;
11709;SDS011;5911;51.036;6.972;2023-07-31T14:44:50;4.88;;;2.25;;
11709;SDS011;5911;51.036;6.972;2023-07-31T14:47:18;4.97;;;2.65;;
11709;SDS011;5911;51.036;6.972;2023-07-31T14:49:47;3.25;;;2.40;;
11709;SDS011;5911;51.036;6.972;2023-07-31T14:52:15;2.78;;;2.20;;
11709;SDS011;5911;51.036;6.972;2023-07-31T14:54:42;3.30;;;2.60;;
11709;SDS011;5911;51.036;6.972;2023-07-31T14:57:11;4.00;;;2.50;;
11709;SDS011;5911;51.036;6.972;2023-07-31T14:59:39;4.65;;;2.45;;
11709;SDS011;5911;51.036;6.972;2023-07-31T15:02:07;3.85;;;2.65;;
11709;SDS011;5911;51.036;6.972;2023-07-31T15:04:36;3.22;;;2.85;;
11709;SDS011;5911;51.036;6.972;2023-07-31T15:07:06;3.08;;;2.78;;
11709;SDS011;5911;51.036;6.972;2023-07-31T15:09:33;5.30;;;2.92;;
11709;SDS011;5911;51.036;6.972;2023-07-31T15:12:01;3.55;;;2.80;;
11709;SDS011;5911;51.036;6.972;2023-07-31T15:14:29;4.80;;;2.95;;